sensor_id;sensor_type;location;lat;lon;timestamp;pressure;altitude;pressure_sealevel;temperature;humidity
25722;BME280;13578;53.450;15.496;2023-03-03T00:00:13;100221.34;;;-1.63;100.00
25722;BME280;13578;53.450;15.496;2023-03-03T00:03:17;100230.78;;;-1.50;100.00
25722;BME280;13578;53.450;15.496;2023-03-03T00:06:19;100218.31;;;-1.52;100.00
25722;BME280;13578;53.450;15.496;2023-03-03T00:09:20;100222.72;;;-1.50;100.00
25722;BME280;13578;53.450;15.496;2023-03-03T00:12:29;100221.03;;;-1.54;100.00
25722;BME280;13578;53.450;15.496;2023-03-03T00:15:30;100221.22;;;-1.58;100.00
25722;BME280;13578;53.450;15.496;2023-03-03T00:18:35;100221.72;;;-1.74;100.00
25722;BME280;13578;53.450;15.496;2023-03-03T00:21:40;100221.50;;;-1.68;100.00
25722;BME280;13578;53.450;15.496;2023-03-03T00:24:41;100229.00;;;-1.78;100.00
25722;BME280;13578;53.450;15.496;2023-03-03T00:27:41;100213.09;;;-1.85;100.00
25722;BME280;13578;53.450;15.496;2023-03-03T00:30:42;100226.97;;;-1.71;100.00
25722;BME280;13578;53.450;15.496;2023-03-03T00:33:47;100225.28;;;-1.73;100.00
25722;BME280;13578;53.450;15.496;2023-03-03T00:36:52;100226.53;;;-1.85;100.00
25722;BME280;13578;53.450;15.496;2023-03-03T00:40:02;100225.75;;;-1.89;100.00
25722;BME280;13578;53.450;15.496;2023-03-03T00:43:22;100231.72;;;-1.79;100.00
25722;BME280;13578;53.450;15.496;2023-03-03T00:46:23;100229.28;;;-1.87;100.00
25722;BME280;13578;53.450;15.496;2023-03-03T00:49:25;100223.72;;;-1.81;100.00
25722;BME280;13578;53.450;15.496;2023-03-03T00:52:26;100214.28;;;-1.94;100.00
25722;BME280;13578;53.450;15.496;2023-03-03T00:55:29;100223.25;;;-1.95;100.00
25722;BME280;13578;53.450;15.496;2023-03-03T00:58:30;100222.97;;;-1.86;100.00
25722;BME280;13578;53.450;15.496;2023-03-03T01:01:31;100241.41;;;-1.73;100.00
25722;BME280;13578;53.450;15.496;2023-03-03T01:04:31;100233.81;;;-1.87;100.00
25722;BME280;13578;53.450;15.496;2023-03-03T01:07:32;100230.34;;;-1.93;100.00
25722;BME280;13578;53.450;15.496;2023-03-03T01:10:37;100231.28;;;-1.94;100.00
25722;BME280;13578;53.450;15.496;2023-03-03T01:13:40;100235.41;;;-2.10;100.00
25722;BME280;13578;53.450;15.496;2023-03-03T01:16:42;100221.06;;;-2.11;100.00
25722;BME280;13578;53.450;15.496;2023-03-03T01:19:42;100194.22;;;-2.12;100.00
25722;BME280;13578;53.450;15.496;2023-03-03T01:22:43;100205.84;;;-2.12;100.00
25722;BME280;13578;53.450;15.496;2023-03-03T01:25:44;100224.22;;;-2.26;100.00
25722;BME280;13578;53.450;15.496;2023-03-03T01:28:44;100238.91;;;-2.38;100.00
25722;BME280;13578;53.450;15.496;2023-03-03T01:31:45;100248.06;;;-2.45;100.00
25722;BME280;13578;53.450;15.496;2023-03-03T01:34:46;100251.53;;;-2.40;100.00
25722;BME280;13578;53.450;15.496;2023-03-03T01:37:47;100227.47;;;-2.45;100.00
25722;BME280;13578;53.450;15.496;2023-03-03T01:40:53;100213.09;;;-2.44;100.00
25722;BME280;13578;53.450;15.496;2023-03-03T01:43:54;100191.78;;;-2.50;100.00
25722;BME280;13578;53.450;15.496;2023-03-03T01:47:16;100187.66;;;-2.62;100.00
25722;BME280;13578;53.450;15.496;2023-03-03T01:51:05;100186.25;;;-2.45;100.00
25722;BME280;13578;53.450;15.496;2023-03-03T01:54:00;100190.75;;;-2.46;100.00
25722;BME280;13578;53.450;15.496;2023-03-03T01:57:05;100199.84;;;-2.50;100.00
25722;BME280;13578;53.450;15.496;2023-03-03T02:00:08;100219.22;;;-2.38;100.00
25722;BME280;13578;53.450;15.496;2023-03-03T02:03:09;100222.97;;;-2.44;100.00
25722;BME280;13578;53.450;15.496;2023-03-03T02:06:16;100232.84;;;-2.45;100.00
25722;BME280;13578;53.450;15.496;2023-03-03T02:12:39;100232.84;;;-2.45;100.00
25722;BME280;13578;53.450;15.496;2023-03-03T02:15:40;100235.72;;;-2.51;100.00
25722;BME280;13578;53.450;15.496;2023-03-03T02:18:41;100235.91;;;-2.57;100.00
25722;BME280;13578;53.450;15.496;2023-03-03T02:21:42;100217.09;;;-2.57;100.00
25722;BME280;13578;53.450;15.496;2023-03-03T02:24:50;100217.28;;;-2.65;100.00
25722;BME280;13578;53.450;15.496;2023-03-03T02:27:53;100212.66;;;-2.60;100.00
25722;BME280;13578;53.450;15.496;2023-03-03T02:30:58;100209.94;;;-2.58;100.00
25722;BME280;13578;53.450;15.496;2023-03-03T02:33:59;100201.16;;;-2.65;100.00
25722;BME280;13578;53.450;15.496;2023-03-03T02:36:59;100203.84;;;-2.65;100.00
25722;BME280;13578;53.450;15.496;2023-03-03T02:40:03;100205.00;;;-2.74;100.00
25722;BME280;13578;53.450;15.496;2023-03-03T02:43:06;100216.56;;;-2.72;100.00
25722;BME280;13578;53.450;15.496;2023-03-03T02:46:08;100219.25;;;-2.72;100.00
25722;BME280;13578;53.450;15.496;2023-03-03T02:49:11;100199.81;;;-2.80;100.00
25722;BME280;13578;53.450;15.496;2023-03-03T02:52:12;100194.44;;;-2.80;100.00
25722;BME280;13578;53.450;15.496;2023-03-03T02:55:14;100199.47;;;-2.67;100.00
25722;BME280;13578;53.450;15.496;2023-03-03T02:58:14;100188.53;;;-2.61;100.00
25722;BME280;13578;53.450;15.496;2023-03-03T03:01:15;100175.28;;;-2.67;100.00
25722;BME280;13578;53.450;15.496;2023-03-03T03:04:21;100156.28;;;-2.61;100.00
25722;BME280;13578;53.450;15.496;2023-03-03T03:07:22;100157.84;;;-2.54;100.00
25722;BME280;13578;53.450;15.496;2023-03-03T03:10:23;100158.81;;;-2.57;100.00
25722;BME280;13578;53.450;15.496;2023-03-03T03:13:24;100173.06;;;-2.53;100.00
25722;BME280;13578;53.450;15.496;2023-03-03T03:16:25;100166.47;;;-2.43;100.00
25722;BME280;13578;53.450;15.496;2023-03-03T03:19:26;100177.00;;;-2.35;100.00
25722;BME280;13578;53.450;15.496;2023-03-03T03:22:27;100178.84;;;-2.37;100.00
25722;BME280;13578;53.450;15.496;2023-03-03T03:25:28;100159.19;;;-2.39;100.00
25722;BME280;13578;53.450;15.496;2023-03-03T03:28:28;100156.19;;;-2.28;100.00
25722;BME280;13578;53.450;15.496;2023-03-03T03:31:29;100145.25;;;-2.24;100.00
25722;BME280;13578;53.450;15.496;2023-03-03T03:34:30;100145.25;;;-2.24;100.00
25722;BME280;13578;53.450;15.496;2023-03-03T03:37:31;100153.88;;;-2.12;100.00
25722;BME280;13578;53.450;15.496;2023-03-03T03:40:32;100152.88;;;-2.10;100.00
25722;BME280;13578;53.450;15.496;2023-03-03T03:43:32;100144.03;;;-2.13;100.00
25722;BME280;13578;53.450;15.496;2023-03-03T03:46:33;100150.91;;;-2.03;100.00
25722;BME280;13578;53.450;15.496;2023-03-03T03:49:34;100130.59;;;-2.13;100.00
25722;BME280;13578;53.450;15.496;2023-03-03T03:52:35;100126.56;;;-2.00;100.00
25722;BME280;13578;53.450;15.496;2023-03-03T03:55:35;100127.47;;;-1.99;100.00
25722;BME280;13578;53.450;15.496;2023-03-03T03:58:36;100120.47;;;-2.05;100.00
25722;BME280;13578;53.450;15.496;2023-03-03T04:01:37;100125.50;;;-1.94;100.00
25722;BME280;13578;53.450;15.496;2023-03-03T04:04:37;100122.84;;;-1.96;100.00
25722;BME280;13578;53.450;15.496;2023-03-03T04:07:38;100119.97;;;-1.89;100.00
25722;BME280;13578;53.450;15.496;2023-03-03T04:10:39;100128.69;;;-1.83;100.00
25722;BME280;13578;53.450;15.496;2023-03-03T04:13:39;100124.41;;;-1.88;100.00
25722;BME280;13578;53.450;15.496;2023-03-03T04:16:40;100132.34;;;-1.84;100.00
25722;BME280;13578;53.450;15.496;2023-03-03T04:19:41;100126.19;;;-1.87;100.00
25722;BME280;13578;53.450;15.496;2023-03-03T04:22:42;100126.34;;;-1.94;100.00
25722;BME280;13578;53.450;15.496;2023-03-03T04:25:45;100125.69;;;-2.00;100.00
25722;BME280;13578;53.450;15.496;2023-03-03T04:28:46;100113.75;;;-1.92;100.00
25722;BME280;13578;53.450;15.496;2023-03-03T04:31:47;100109.41;;;-1.96;100.00
25722;BME280;13578;53.450;15.496;2023-03-03T04:34:47;100112.66;;;-1.86;100.00
25722;BME280;13578;53.450;15.496;2023-03-03T04:37:48;100105.50;;;-1.87;100.00
25722;BME280;13578;53.450;15.496;2023-03-03T04:40:48;100118.81;;;-1.82;100.00
25722;BME280;13578;53.450;15.496;2023-03-03T04:43:49;100110.91;;;-1.87;100.00
25722;BME280;13578;53.450;15.496;2023-03-03T04:46:50;100121.56;;;-1.84;100.00
25722;BME280;13578;53.450;15.496;2023-03-03T04:49:50;100117.28;;;-1.89;100.00
25722;BME280;13578;53.450;15.496;2023-03-03T04:52:51;100132.50;;;-1.90;100.00
25722;BME280;13578;53.450;15.496;2023-03-03T04:55:52;100130.97;;;-1.97;100.00
25722;BME280;13578;53.450;15.496;2023-03-03T04:58:53;100128.19;;;-1.94;100.00
25722;BME280;13578;53.450;15.496;2023-03-03T05:01:54;100126.41;;;-1.95;100.00
25722;BME280;13578;53.450;15.496;2023-03-03T05:04:55;100111.16;;;-1.95;100.00
25722;BME280;13578;53.450;15.496;2023-03-03T05:07:55;100112.97;;;-1.95;100.00
25722;BME280;13578;53.450;15.496;2023-03-03T05:10:56;100116.38;;;-1.90;100.00
25722;BME280;13578;53.450;15.496;2023-03-03T05:13:59;100128.59;;;-1.80;100.00
25722;BME280;13578;53.450;15.496;2023-03-03T05:16:59;100121.66;;;-1.87;100.00
25722;BME280;13578;53.450;15.496;2023-03-03T05:20:00;100123.22;;;-1.80;100.00
25722;BME280;13578;53.450;15.496;2023-03-03T05:23:00;100129.31;;;-1.74;100.00
25722;BME280;13578;53.450;15.496;2023-03-03T05:26:01;100123.22;;;-1.80;100.00
25722;BME280;13578;53.450;15.496;2023-03-03T05:29:02;100129.31;;;-1.74;100.00
25722;BME280;13578;53.450;15.496;2023-03-03T05:32:03;100129.00;;;-1.65;100.00
25722;BME280;13578;53.450;15.496;2023-03-03T05:35:04;100145.06;;;-1.62;100.00
25722;BME280;13578;53.450;15.496;2023-03-03T05:38:05;100136.25;;;-1.67;100.00
25722;BME280;13578;53.450;15.496;2023-03-03T05:41:05;100146.84;;;-1.63;100.00
25722;BME280;13578;53.450;15.496;2023-03-03T05:44:06;100155.78;;;-1.61;100.00
25722;BME280;13578;53.450;15.496;2023-03-03T05:47:07;100162.06;;;-1.62;100.00
25722;BME280;13578;53.450;15.496;2023-03-03T05:50:09;100154.78;;;-1.58;100.00
25722;BME280;13578;53.450;15.496;2023-03-03T05:53:11;100148.47;;;-1.57;100.00
25722;BME280;13578;53.450;15.496;2023-03-03T05:56:11;100136.09;;;-1.63;100.00
25722;BME280;13578;53.450;15.496;2023-03-03T05:59:12;100132.25;;;-1.55;100.00
25722;BME280;13578;53.450;15.496;2023-03-03T06:02:13;100125.22;;;-1.60;100.00
25722;BME280;13578;53.450;15.496;2023-03-03T06:05:14;100119.50;;;-1.50;100.00
25722;BME280;13578;53.450;15.496;2023-03-03T06:08:14;100110.88;;;-1.60;100.00
25722;BME280;13578;53.450;15.496;2023-03-03T06:11:15;100109.84;;;-1.56;100.00
25722;BME280;13578;53.450;15.496;2023-03-03T06:14:18;100109.94;;;-1.59;100.00
25722;BME280;13578;53.450;15.496;2023-03-03T06:17:20;100115.25;;;-1.57;100.00
25722;BME280;13578;53.450;15.496;2023-03-03T06:20:20;100123.31;;;-1.56;100.00
25722;BME280;13578;53.450;15.496;2023-03-03T06:23:21;100130.09;;;-1.44;100.00
25722;BME280;13578;53.450;15.496;2023-03-03T06:26:22;100128.25;;;-1.44;100.00
25722;BME280;13578;53.450;15.496;2023-03-03T06:29:23;100126.41;;;-1.41;100.00
25722;BME280;13578;53.450;15.496;2023-03-03T06:32:23;100130.72;;;-1.37;100.00
25722;BME280;13578;53.450;15.496;2023-03-03T06:35:24;100145.13;;;-1.38;100.00
25722;BME280;13578;53.450;15.496;2023-03-03T06:38:25;100151.28;;;-1.35;100.00
25722;BME280;13578;53.450;15.496;2023-03-03T06:41:25;100143.34;;;-1.39;100.00
25722;BME280;13578;53.450;15.496;2023-03-03T06:44:26;100142.38;;;-1.37;100.00
25722;BME280;13578;53.450;15.496;2023-03-03T06:47:27;100145.94;;;-1.36;100.00
25722;BME280;13578;53.450;15.496;2023-03-03T06:50:27;100168.00;;;-1.25;100.00
25722;BME280;13578;53.450;15.496;2023-03-03T06:53:30;100148.59;;;-1.35;100.00
25722;BME280;13578;53.450;15.496;2023-03-03T06:56:35;100150.31;;;-1.32;100.00
25722;BME280;13578;53.450;15.496;2023-03-03T06:59:36;100152.03;;;-1.31;100.00
25722;BME280;13578;53.450;15.496;2023-03-03T07:02:36;100138.53;;;-1.30;100.00
25722;BME280;13578;53.450;15.496;2023-03-03T07:05:37;100148.81;;;-1.16;100.00
25722;BME280;13578;53.450;15.496;2023-03-03T07:08:38;100163.00;;;-1.10;100.00
25722;BME280;13578;53.450;15.496;2023-03-03T07:11:40;100166.72;;;-1.15;100.00
25722;BME280;13578;53.450;15.496;2023-03-03T07:14:45;100167.56;;;-1.13;100.00
25722;BME280;13578;53.450;15.496;2023-03-03T07:17:53;100166.09;;;-1.21;100.00
25722;BME280;13578;53.450;15.496;2023-03-03T07:20:54;100181.97;;;-1.14;100.00
25722;BME280;13578;53.450;15.496;2023-03-03T07:23:55;100189.19;;;-1.14;100.00
25722;BME280;13578;53.450;15.496;2023-03-03T07:27:00;100182.91;;;-1.15;100.00
25722;BME280;13578;53.450;15.496;2023-03-03T07:30:28;100177.88;;;-1.25;100.00
25722;BME280;13578;53.450;15.496;2023-03-03T07:33:43;100192.69;;;-1.12;100.00
25722;BME280;13578;53.450;15.496;2023-03-03T07:36:45;100174.72;;;-1.12;100.00
25722;BME280;13578;53.450;15.496;2023-03-03T07:39:46;100189.75;;;-1.06;100.00
25722;BME280;13578;53.450;15.496;2023-03-03T07:42:49;100189.00;;;-1.09;100.00
25722;BME280;13578;53.450;15.496;2023-03-03T07:45:50;100186.44;;;-1.13;100.00
25722;BME280;13578;53.450;15.496;2023-03-03T07:48:51;100192.41;;;-1.04;100.00
25722;BME280;13578;53.450;15.496;2023-03-03T07:51:56;100189.66;;;-1.03;100.00
25722;BME280;13578;53.450;15.496;2023-03-03T07:54:59;100189.50;;;-0.98;100.00
25722;BME280;13578;53.450;15.496;2023-03-03T07:58:14;100197.06;;;-1.09;100.00
25722;BME280;13578;53.450;15.496;2023-03-03T08:01:41;100196.69;;;-0.99;100.00
25722;BME280;13578;53.450;15.496;2023-03-03T08:04:46;100191.28;;;-0.99;100.00
25722;BME280;13578;53.450;15.496;2023-03-03T08:07:51;100177.88;;;-1.00;100.00
25722;BME280;13578;53.450;15.496;2023-03-03T08:10:53;100176.34;;;-1.07;100.00
25722;BME280;13578;53.450;15.496;2023-03-03T08:13:55;100195.81;;;-0.99;100.00
25722;BME280;13578;53.450;15.496;2023-03-03T08:16:56;100184.19;;;-1.00;100.00
25722;BME280;13578;53.450;15.496;2023-03-03T08:19:57;100170.50;;;-0.95;100.00
25722;BME280;13578;53.450;15.496;2023-03-03T08:22:58;100171.94;;;-0.85;100.00
25722;BME280;13578;53.450;15.496;2023-03-03T08:25:59;100167.72;;;-0.92;100.00
25722;BME280;13578;53.450;15.496;2023-03-03T08:28:59;100169.19;;;-0.83;100.00
25722;BME280;13578;53.450;15.496;2023-03-03T08:32:00;100165.69;;;-0.85;100.00
25722;BME280;13578;53.450;15.496;2023-03-03T08:35:01;100180.63;;;-0.76;100.00
25722;BME280;13578;53.450;15.496;2023-03-03T08:38:02;100173.69;;;-0.84;100.00
25722;BME280;13578;53.450;15.496;2023-03-03T08:41:04;100170.19;;;-0.86;100.00
25722;BME280;13578;53.450;15.496;2023-03-03T08:44:04;100167.16;;;-0.76;100.00
25722;BME280;13578;53.450;15.496;2023-03-03T08:47:05;100177.44;;;-0.62;100.00
25722;BME280;13578;53.450;15.496;2023-03-03T08:50:06;100172.53;;;-0.76;100.00
25722;BME280;13578;53.450;15.496;2023-03-03T08:53:07;100183.91;;;-0.68;100.00
25722;BME280;13578;53.450;15.496;2023-03-03T08:56:08;100190.06;;;-0.65;100.00
25722;BME280;13578;53.450;15.496;2023-03-03T08:59:09;100189.25;;;-0.67;100.00
25722;BME280;13578;53.450;15.496;2023-03-03T09:02:11;100200.34;;;-0.76;100.00
25722;BME280;13578;53.450;15.496;2023-03-03T09:05:12;100201.72;;;-0.64;100.00
25722;BME280;13578;53.450;15.496;2023-03-03T09:08:13;100202.72;;;-0.67;100.00
25722;BME280;13578;53.450;15.496;2023-03-03T09:11:14;100201.97;;;-0.70;100.00
25722;BME280;13578;53.450;15.496;2023-03-03T09:14:19;100207.84;;;-0.59;100.00
25722;BME280;13578;53.450;15.496;2023-03-03T09:17:28;100200.69;;;-0.60;100.00
25722;BME280;13578;53.450;15.496;2023-03-03T09:23:37;100193.53;;;-0.61;100.00
25722;BME280;13578;53.450;15.496;2023-03-03T09:29:39;100201.97;;;-0.46;100.00
25722;BME280;13578;53.450;15.496;2023-03-03T09:32:40;100205.03;;;-0.32;100.00
25722;BME280;13578;53.450;15.496;2023-03-03T09:35:42;100201.44;;;-0.33;100.00
25722;BME280;13578;53.450;15.496;2023-03-03T09:38:44;100189.38;;;-0.46;100.00
25722;BME280;13578;53.450;15.496;2023-03-03T09:45:12;100201.56;;;-0.36;100.00
25722;BME280;13578;53.450;15.496;2023-03-03T09:48:21;100201.41;;;-0.31;100.00
25722;BME280;13578;53.450;15.496;2023-03-03T10:01:15;100198.09;;;-0.15;100.00
25722;BME280;13578;53.450;15.496;2023-03-03T10:08:00;100215.66;;;-0.05;100.00
25722;BME280;13578;53.450;15.496;2023-03-03T10:11:13;100213.97;;;-0.08;100.00
25722;BME280;13578;53.450;15.496;2023-03-03T10:14:49;100212.09;;;-0.06;100.00
25722;BME280;13578;53.450;15.496;2023-03-03T10:18:02;100193.41;;;-0.10;100.00
25722;BME280;13578;53.450;15.496;2023-03-03T10:21:28;100200.72;;;-0.14;100.00
25722;BME280;13578;53.450;15.496;2023-03-03T10:31:18;100188.06;;;0.10;100.00
25722;BME280;13578;53.450;15.496;2023-03-03T10:47:27;100197.72;;;0.38;100.00
25722;BME280;13578;53.450;15.496;2023-03-03T10:54:13;100198.03;;;0.08;100.00
25722;BME280;13578;53.450;15.496;2023-03-03T10:57:29;100188.81;;;0.14;100.00
25722;BME280;13578;53.450;15.496;2023-03-03T11:00:48;100195.63;;;0.24;100.00
25722;BME280;13578;53.450;15.496;2023-03-03T11:04:04;100196.28;;;0.29;100.00
25722;BME280;13578;53.450;15.496;2023-03-03T11:07:30;100184.06;;;0.21;100.00
25722;BME280;13578;53.450;15.496;2023-03-03T11:17:56;100164.94;;;0.47;100.00
25722;BME280;13578;53.450;15.496;2023-03-03T11:24:32;100151.91;;;0.37;100.00
25722;BME280;13578;53.450;15.496;2023-03-03T11:38:09;100150.88;;;0.39;100.00
25722;BME280;13578;53.450;15.496;2023-03-03T11:45:21;100148.91;;;0.65;100.00
25722;BME280;13578;53.450;15.496;2023-03-03T11:51:33;100133.63;;;0.43;100.00
25722;BME280;13578;53.450;15.496;2023-03-03T11:57:53;100126.66;;;0.58;100.00
25722;BME280;13578;53.450;15.496;2023-03-03T12:01:13;100127.88;;;0.51;100.00
25722;BME280;13578;53.450;15.496;2023-03-03T12:04:23;100141.78;;;0.62;100.00
25722;BME280;13578;53.450;15.496;2023-03-03T12:18:19;100139.22;;;1.01;100.00
25722;BME280;13578;53.450;15.496;2023-03-03T12:28:08;100144.13;;;1.11;100.00
25722;BME280;13578;53.450;15.496;2023-03-03T12:31:32;100144.13;;;1.11;100.00
25722;BME280;13578;53.450;15.496;2023-03-03T12:35:29;100147.53;;;1.17;100.00
25722;BME280;13578;53.450;15.496;2023-03-03T12:42:16;100141.13;;;1.38;100.00
25722;BME280;13578;53.450;15.496;2023-03-03T12:45:29;100143.97;;;1.35;100.00
25722;BME280;13578;53.450;15.496;2023-03-03T12:48:46;100114.84;;;1.40;100.00
25722;BME280;13578;53.450;15.496;2023-03-03T12:52:18;100122.41;;;1.53;100.00
25722;BME280;13578;53.450;15.496;2023-03-03T12:58:59;100134.31;;;1.49;100.00
25722;BME280;13578;53.450;15.496;2023-03-03T13:09:22;100127.22;;;1.46;100.00
25722;BME280;13578;53.450;15.496;2023-03-03T13:12:41;100120.06;;;1.64;100.00
25722;BME280;13578;53.450;15.496;2023-03-03T13:16:08;100115.66;;;1.81;100.00
25722;BME280;13578;53.450;15.496;2023-03-03T13:19:25;100110.91;;;1.86;100.00
25722;BME280;13578;53.450;15.496;2023-03-03T13:22:46;100123.09;;;1.95;100.00
25722;BME280;13578;53.450;15.496;2023-03-03T13:29:11;100093.72;;;1.87;100.00
25722;BME280;13578;53.450;15.496;2023-03-03T13:32:22;100101.28;;;1.98;100.00
25722;BME280;13578;53.450;15.496;2023-03-03T13:35:44;100109.50;;;1.96;100.00
25722;BME280;13578;53.450;15.496;2023-03-03T13:38:50;100101.25;;;1.80;100.00
25722;BME280;13578;53.450;15.496;2023-03-03T13:42:00;100103.59;;;1.88;100.00
25722;BME280;13578;53.450;15.496;2023-03-03T13:45:12;100088.16;;;1.90;100.00
25722;BME280;13578;53.450;15.496;2023-03-03T13:48:47;100088.56;;;2.00;100.00
25722;BME280;13578;53.450;15.496;2023-03-03T13:52:06;100077.44;;;2.06;100.00
25722;BME280;13578;53.450;15.496;2023-03-03T13:55:19;100070.16;;;2.06;100.00
25722;BME280;13578;53.450;15.496;2023-03-03T13:58:32;100076.84;;;1.99;100.00
25722;BME280;13578;53.450;15.496;2023-03-03T14:11:45;100063.97;;;2.04;100.00
25722;BME280;13578;53.450;15.496;2023-03-03T14:14:58;100065.50;;;2.28;100.00
25722;BME280;13578;53.450;15.496;2023-03-03T14:21:39;100061.84;;;2.29;100.00
25722;BME280;13578;53.450;15.496;2023-03-03T14:25:07;100067.56;;;2.22;100.00
25722;BME280;13578;53.450;15.496;2023-03-03T14:28:11;100053.47;;;2.16;100.00
25722;BME280;13578;53.450;15.496;2023-03-03T14:31:22;100065.59;;;2.26;100.00
25722;BME280;13578;53.450;15.496;2023-03-03T14:37:29;100055.94;;;2.20;100.00
25722;BME280;13578;53.450;15.496;2023-03-03T14:40:43;100056.03;;;2.19;100.00
25722;BME280;13578;53.450;15.496;2023-03-03T14:43:57;100039.59;;;2.22;100.00
25722;BME280;13578;53.450;15.496;2023-03-03T14:47:10;100040.72;;;2.18;100.00
25722;BME280;13578;53.450;15.496;2023-03-03T14:53:36;100033.41;;;2.20;100.00
25722;BME280;13578;53.450;15.496;2023-03-03T14:56:38;100034.19;;;2.22;100.00
25722;BME280;13578;53.450;15.496;2023-03-03T15:00:38;100034.03;;;2.25;100.00
25722;BME280;13578;53.450;15.496;2023-03-03T15:03:22;100027.34;;;2.15;100.00
25722;BME280;13578;53.450;15.496;2023-03-03T15:06:43;100024.81;;;2.12;100.00
25722;BME280;13578;53.450;15.496;2023-03-03T15:09:48;100022.88;;;2.14;100.00
25722;BME280;13578;53.450;15.496;2023-03-03T15:12:49;100019.63;;;2.07;100.00
25722;BME280;13578;53.450;15.496;2023-03-03T15:26:44;100010.03;;;2.17;100.00
25722;BME280;13578;53.450;15.496;2023-03-03T15:29:59;100013.25;;;2.08;100.00
25722;BME280;13578;53.450;15.496;2023-03-03T15:33:31;100011.16;;;2.13;100.00
25722;BME280;13578;53.450;15.496;2023-03-03T15:40:08;99998.03;;;2.05;100.00
25722;BME280;13578;53.450;15.496;2023-03-03T15:50:37;99988.66;;;2.13;100.00
25722;BME280;13578;53.450;15.496;2023-03-03T15:57:04;99979.81;;;2.09;100.00
25722;BME280;13578;53.450;15.496;2023-03-03T16:00:23;99979.53;;;2.14;100.00
25722;BME280;13578;53.450;15.496;2023-03-03T16:03:37;99978.06;;;2.08;100.00
25722;BME280;13578;53.450;15.496;2023-03-03T16:10:12;99972.63;;;2.08;100.00
25722;BME280;13578;53.450;15.496;2023-03-03T16:13:45;99971.41;;;2.14;100.00
25722;BME280;13578;53.450;15.496;2023-03-03T16:17:00;99968.97;;;2.09;100.00
25722;BME280;13578;53.450;15.496;2023-03-03T16:23:46;99966.28;;;2.09;100.00
25722;BME280;13578;53.450;15.496;2023-03-03T16:33:17;99982.59;;;2.25;100.00
25722;BME280;13578;53.450;15.496;2023-03-03T16:36:56;99987.03;;;2.26;100.00
25722;BME280;13578;53.450;15.496;2023-03-03T16:40:19;99979.97;;;2.24;100.00
25722;BME280;13578;53.450;15.496;2023-03-03T16:43:39;99982.81;;;2.20;100.00
25722;BME280;13578;53.450;15.496;2023-03-03T16:46:44;99976.69;;;2.17;100.00
25722;BME280;13578;53.450;15.496;2023-03-03T17:00:23;99973.13;;;2.16;100.00
25722;BME280;13578;53.450;15.496;2023-03-03T17:03:53;99966.09;;;2.12;100.00
25722;BME280;13578;53.450;15.496;2023-03-03T17:07:05;99973.50;;;2.09;100.00
25722;BME280;13578;53.450;15.496;2023-03-03T17:10:24;99975.13;;;2.13;100.00
25722;BME280;13578;53.450;15.496;2023-03-03T17:13:44;99975.97;;;2.13;100.00
25722;BME280;13578;53.450;15.496;2023-03-03T17:16:55;99964.34;;;2.11;100.00
25722;BME280;13578;53.450;15.496;2023-03-03T17:45:35;99956.00;;;1.98;100.00
25722;BME280;13578;53.450;15.496;2023-03-03T17:52:50;99947.41;;;1.90;100.00
25722;BME280;13578;53.450;15.496;2023-03-03T17:56:05;99943.47;;;1.96;100.00
25722;BME280;13578;53.450;15.496;2023-03-03T18:22:44;99926.75;;;1.87;100.00
25722;BME280;13578;53.450;15.496;2023-03-03T18:25:59;99932.34;;;1.84;100.00
25722;BME280;13578;53.450;15.496;2023-03-03T18:29:17;99936.72;;;1.87;100.00
25722;BME280;13578;53.450;15.496;2023-03-03T18:32:20;99929.78;;;1.81;100.00
25722;BME280;13578;53.450;15.496;2023-03-03T18:35:36;99920.63;;;1.84;100.00
25722;BME280;13578;53.450;15.496;2023-03-03T18:38:37;99918.25;;;1.78;100.00
25722;BME280;13578;53.450;15.496;2023-03-03T18:42:03;99916.97;;;1.85;100.00
25722;BME280;13578;53.450;15.496;2023-03-03T18:45:54;99916.91;;;1.86;100.00
25722;BME280;13578;53.450;15.496;2023-03-03T18:49:03;99911.06;;;1.77;100.00
25722;BME280;13578;53.450;15.496;2023-03-03T18:52:18;99907.41;;;1.78;100.00
25722;BME280;13578;53.450;15.496;2023-03-03T18:55:23;99901.06;;;1.79;100.00
25722;BME280;13578;53.450;15.496;2023-03-03T18:58:53;99918.19;;;1.79;100.00
25722;BME280;13578;53.450;15.496;2023-03-03T19:02:12;99912.38;;;1.87;100.00
25722;BME280;13578;53.450;15.496;2023-03-03T19:05:23;99911.75;;;1.82;100.00
25722;BME280;13578;53.450;15.496;2023-03-03T19:11:49;99910.34;;;1.73;100.00
25722;BME280;13578;53.450;15.496;2023-03-03T19:14:50;99908.69;;;1.70;100.00
25722;BME280;13578;53.450;15.496;2023-03-03T19:17:52;99924.56;;;1.78;100.00
25722;BME280;13578;53.450;15.496;2023-03-03T19:24:27;99920.56;;;1.68;100.00
25722;BME280;13578;53.450;15.496;2023-03-03T19:31:14;99889.44;;;1.59;100.00
25722;BME280;13578;53.450;15.496;2023-03-03T19:45:06;99902.34;;;1.54;100.00
25722;BME280;13578;53.450;15.496;2023-03-03T19:47:45;99894.06;;;1.39;100.00
25722;BME280;13578;53.450;15.496;2023-03-03T19:57:48;99897.13;;;1.32;100.00
25722;BME280;13578;53.450;15.496;2023-03-03T20:01:20;99891.88;;;1.29;100.00
25722;BME280;13578;53.450;15.496;2023-03-03T20:04:55;99873.34;;;1.21;100.00
25722;BME280;13578;53.450;15.496;2023-03-03T20:12:15;99856.31;;;1.19;100.00
25722;BME280;13578;53.450;15.496;2023-03-03T20:15:15;99860.94;;;1.17;100.00
25722;BME280;13578;53.450;15.496;2023-03-03T20:22:10;99853.59;;;1.19;100.00
25722;BME280;13578;53.450;15.496;2023-03-03T20:25:29;99831.47;;;1.10;100.00
25722;BME280;13578;53.450;15.496;2023-03-03T20:32:55;99817.50;;;1.02;100.00
25722;BME280;13578;53.450;15.496;2023-03-03T20:42:19;99796.75;;;1.03;100.00